Pagrindinis puslapis
METAR-TAF:

METAR-TAF

Oro uostai :

Santjagas, Čilė

platuma: 33-23S, ilguma: 070-47W, Aukštis: 475 m

Dabartinis oras

Ataskaita buvo paskelbta 22 minutes, ne 23:00 UTC
Vėjas 15 kt iš Pietų/Pietvakarių
Temperatūra 29°C
Drėgmė 23%
Slėgis 1009 hPa
Matomumas 10 km arba daugiau
nėra debesų žemiau 1500 m ir nėra kamuolinių lietaus debesų

METAR: SCEL 192300Z 21015KT CAVOK 29/06 Q1009 NOSIG

Laikas: 20:22 (23:22 UTC)

Prognozė

Ataskaita buvo paskelbta 7 valandos ir 2 minutes, ne 16:20 UTC
Prognozė galioja nuo 19 metu 18 UTC su 20 metu 18 UTC
Vėjas 15 kt iš Pietų/Pietvakarių
Matomumas 10 km arba daugiau
nėra debesų žemiau 1500 m ir nėra kamuolinių lietaus debesų
Tapsmas
nuo 20 metu 01 UTC su 20 metu 03 UTC
Vėjas 4 kt iš Pietų/Pietryčių
Tapsmas
nuo 20 metu 16 UTC su 20 metu 18 UTC
Vėjas 10 kt iš Pietų

TAF: SCEL 191620Z 1918/2018 20015KT CAVOK TX35/1919Z TN15/2011Z BECMG 2001/2003 16004KT BECMG 2016/2018 19010KT

Orai ataskaitas ir orų prognozės (METAR, TAF).

turimą stotys yra geltonos ir raudonos taškus žemėlapyje.

Perkelti pele per norėdami pamatyti stoties vardą.

Tada spustelėkite, norėdami matyti oro stebėjimo ir prognozės.

Norėdami pakeisti žemėlapį: spustelėkite ant žalios mygtukų su juodo kryžiaus žemyn,; žalią mygtuką su brūkšneliu, jei norite nutolinti; arba žalių rodyklių gretimoms žemėlapius.


METAR-TAF: